Time;durP1;ratioP1;P1;durP2;ratioP2;P2;SDS_P1;SDS_P2;PMS_P1;PMS_P2;Temp;Humidity;BMP_temperature;BMP_pressure;BME280_temperature;BME280_humidity;BME280_pressure;Samples;Min_cycle;Max_cycle;Signal;HPM_P1;HPM_P2
2022/07/21 00:01:19;;;;;;;5.97;2.88;;;29.70;74.70;;;;;;5054976;28;20033;-73
2022/07/21 00:03:44;;;;;;;7.10;3.22;;;29.70;74.60;;;;;;5073077;28;20082;-72
2022/07/21 00:06:10;;;;;;;6.40;2.80;;;29.70;74.80;;;;;;5072951;28;20072;-72
2022/07/21 00:08:36;;;;;;;4.93;3.28;;;29.70;74.90;;;;;;5073198;28;20025;-73
2022/07/21 00:11:02;;;;;;;8.75;3.28;;;29.70;74.80;;;;;;5055112;28;20028;-72
2022/07/21 00:13:28;;;;;;;5.30;3.15;;;29.70;74.80;;;;;;5077350;28;20465;-73
2022/07/21 00:15:53;;;;;;;6.13;3.25;;;29.80;74.80;;;;;;5076924;28;20027;-72
2022/07/21 00:18:20;;;;;;;6.63;3.28;;;29.80;74.60;;;;;;5076882;28;20541;-75
2022/07/21 00:20:45;;;;;;;5.82;3.45;;;29.90;74.60;;;;;;5077131;28;20029;-74
2022/07/21 00:23:11;;;;;;;6.22;3.30;;;29.90;74.70;;;;;;5077036;28;20028;-72
2022/07/21 00:25:37;;;;;;;4.43;2.90;;;29.90;74.90;;;;;;5058816;28;20123;-71
2022/07/21 00:28:04;;;;;;;4.32;2.80;;;29.90;74.90;;;;;;5077254;28;20020;-73
2022/07/21 00:30:30;;;;;;;4.32;2.70;;;29.90;74.90;;;;;;5077269;28;20491;-74
2022/07/21 00:32:55;;;;;;;5.05;2.90;;;29.80;75.00;;;;;;5077030;28;20056;-73
2022/07/21 00:35:21;;;;;;;6.50;3.28;;;29.70;75.10;;;;;;5076973;28;20385;-73
2022/07/21 00:37:47;;;;;;;11.93;3.70;;;29.70;75.20;;;;;;5076841;28;20055;-74
2022/07/21 00:40:14;;;;;;;7.15;3.00;;;29.80;75.20;;;;;;5076959;28;20025;-73
2022/07/21 00:42:41;;;;;;;6.18;3.20;;;29.80;75.20;;;;;;5076580;28;20465;-73
2022/07/21 00:45:08;;;;;;;4.57;2.78;;;29.80;75.20;;;;;;5058632;28;20358;-73
2022/07/21 00:47:34;;;;;;;4.55;3.45;;;29.80;75.20;;;;;;5076837;28;20023;-72
2022/07/21 00:50:05;;;;;;;6.70;3.45;;;29.80;75.30;;;;;;5058779;28;20016;-72
2022/07/21 00:52:31;;;;;;;7.43;3.85;;;29.80;75.70;;;;;;5059200;28;20027;-72
2022/07/21 00:54:57;;;;;;;5.43;3.38;;;29.70;76.00;;;;;;5076579;28;20104;-72
2022/07/21 00:57:22;;;;;;;7.93;3.63;;;29.70;76.20;;;;;;5076245;28;20056;-72
2022/07/21 00:59:48;;;;;;;5.18;3.10;;;29.60;76.60;;;;;;5076567;28;20470;-74
2022/07/21 01:02:14;;;;;;;8.10;3.58;;;29.60;76.70;;;;;;5076762;28;20073;-72
2022/07/21 01:04:40;;;;;;;4.90;3.45;;;29.60;77.20;;;;;;5076490;28;20025;-74
2022/07/21 01:07:06;;;;;;;6.82;3.60;;;29.60;77.20;;;;;;5076244;28;20017;-72
2022/07/21 01:09:33;;;;;;;4.32;3.17;;;29.50;77.40;;;;;;5076287;28;20017;-73
2022/07/21 01:12:00;;;;;;;6.90;3.67;;;29.50;78.20;;;;;;5076493;28;20138;-73
2022/07/21 01:14:26;;;;;;;7.05;3.60;;;29.40;78.50;;;;;;5076337;28;20470;-73
2022/07/21 01:16:52;;;;;;;5.80;3.80;;;29.30;79.20;;;;;;5076241;28;20044;-74
2022/07/21 01:19:18;;;;;;;5.20;3.97;;;29.20;79.40;;;;;;5075975;28;20025;-74
2022/07/21 01:21:46;;;;;;;6.05;3.88;;;29.10;79.70;;;;;;5076100;28;20100;-73
2022/07/21 01:24:12;;;;;;;6.30;4.00;;;29.10;80.00;;;;;;5075584;28;20374;-74
2022/07/21 01:26:46;;;;;;;7.32;4.28;;;29.10;79.70;;;;;;5075890;28;20104;-74
2022/07/21 01:29:12;;;;;;;6.68;3.83;;;29.10;80.00;;;;;;5076190;28;20400;-74
2022/07/21 01:31:40;;;;;;;7.40;3.58;;;29.10;79.70;;;;;;5076186;28;20086;-74
2022/07/21 01:34:07;;;;;;;5.90;4.00;;;29.10;80.30;;;;;;5075821;28;20099;-73
2022/07/21 01:36:32;;;;;;;10.25;4.80;;;29.10;80.00;;;;;;5075633;28;20079;-74
2022/07/21 01:41:43;;;;;;;9.65;4.38;;;29.00;79.30;;;;;;5075883;28;20439;-72
2022/07/21 01:44:11;;;;;;;8.50;4.05;;;29.00;79.80;;;;;;5075819;28;20024;-74
2022/07/21 01:46:44;;;;;;;7.20;3.80;;;29.10;79.70;;;;;;5076077;28;20112;-73
2022/07/21 01:49:12;;;;;;;6.82;4.00;;;29.10;79.60;;;;;;5075458;28;20017;-72
2022/07/21 01:51:37;;;;;;;5.65;3.72;;;29.10;79.60;;;;;;5075701;28;20035;-73
2022/07/21 01:54:04;;;;;;;7.10;4.13;;;29.10;79.30;;;;;;5075458;28;20029;-74
2022/07/21 01:56:30;;;;;;;7.75;3.60;;;29.10;79.20;;;;;;5074915;28;20055;-72
2022/07/21 01:58:57;;;;;;;6.55;4.40;;;29.10;79.20;;;;;;5075313;28;20485;-72
2022/07/21 02:01:28;;;;;;;8.45;4.18;;;29.10;79.50;;;;;;5075288;28;20520;-73
2022/07/21 02:03:55;;;;;;;8.82;4.25;;;29.00;79.80;;;;;;5075516;28;20066;-74
2022/07/21 02:06:21;;;;;;;8.88;4.20;;;29.00;80.20;;;;;;5075409;28;20024;-72
2022/07/21 02:08:47;;;;;;;6.28;4.00;;;28.90;80.00;;;;;;5076051;28;20021;-72
2022/07/21 02:11:14;;;;;;;8.40;4.55;;;28.90;80.20;;;;;;5084830;28;20032;-72
2022/07/21 02:13:40;;;;;;;8.60;4.65;;;28.90;80.30;;;;;;5091841;28;20107;-72
2022/07/21 02:16:07;;;;;;;9.13;4.40;;;28.90;80.30;;;;;;5075186;28;20032;-73
2022/07/21 02:18:33;;;;;;;5.80;4.43;;;28.80;79.50;;;;;;5075385;28;20028;-72
2022/07/21 02:20:59;;;;;;;7.95;4.47;;;28.80;79.80;;;;;;5075150;28;20358;-73
2022/07/21 02:23:25;;;;;;;7.70;4.68;;;28.70;79.60;;;;;;5075173;28;20025;-73
2022/07/21 02:25:52;;;;;;;7.05;4.72;;;28.70;79.70;;;;;;5056944;28;20028;-73
2022/07/21 02:28:19;;;;;;;8.52;4.75;;;28.70;79.50;;;;;;5075069;28;20024;-73
2022/07/21 02:30:45;;;;;;;9.32;4.47;;;28.70;79.50;;;;;;5074771;28;20025;-73
2022/07/21 02:33:12;;;;;;;6.72;4.05;;;28.70;79.40;;;;;;5074716;28;20492;-73
2022/07/21 02:35:38;;;;;;;7.47;3.88;;;28.70;78.80;;;;;;5073569;28;20024;-73
2022/07/21 02:38:04;;;;;;;7.60;4.35;;;28.80;78.90;;;;;;5075149;28;20545;-73
2022/07/21 02:40:30;;;;;;;8.82;4.45;;;28.80;78.60;;;;;;5075035;28;20096;-73
2022/07/21 02:42:56;;;;;;;5.72;4.10;;;28.70;78.40;;;;;;5074487;28;20143;-74
2022/07/21 02:45:22;;;;;;;10.55;4.60;;;28.70;78.30;;;;;;5074251;28;20027;-72
2022/07/21 02:47:54;;;;;;;8.60;4.20;;;28.70;77.80;;;;;;5072992;28;20035;-74
2022/07/21 02:50:21;;;;;;;7.93;4.68;;;28.70;77.90;;;;;;5074646;28;20067;-73
2022/07/21 02:52:47;;;;;;;7.30;4.53;;;28.70;77.50;;;;;;5074526;28;20019;-72
2022/07/21 02:55:14;;;;;;;6.90;4.60;;;28.70;76.90;;;;;;5074085;28;20025;-75
2022/07/21 02:57:40;;;;;;;9.40;4.32;;;28.70;75.70;;;;;;5074091;28;20382;-71
2022/07/21 03:00:08;;;;;;;9.93;4.88;;;28.60;76.20;;;;;;5074315;28;20099;-72
2022/07/21 03:02:35;;;;;;;9.20;4.50;;;28.60;75.70;;;;;;5074197;28;20359;-74
2022/07/21 03:05:00;;;;;;;9.15;4.80;;;28.60;75.80;;;;;;5074001;28;20501;-72
2022/07/21 03:07:26;;;;;;;8.93;4.75;;;28.50;75.60;;;;;;5074270;28;20051;-73
2022/07/21 03:09:52;;;;;;;10.13;5.10;;;28.50;75.20;;;;;;5056282;28;20028;-73
2022/07/21 03:12:18;;;;;;;10.02;4.57;;;28.40;74.90;;;;;;5073930;28;20025;-72
2022/07/21 03:14:43;;;;;;;6.97;4.22;;;28.40;74.40;;;;;;5056505;28;20028;-72
2022/07/21 03:17:09;;;;;;;7.13;5.00;;;28.40;74.00;;;;;;5056182;28;20524;-70
2022/07/21 03:19:35;;;;;;;8.60;4.50;;;28.40;73.50;;;;;;5056245;28;20021;-73
2022/07/21 03:22:00;;;;;;;7.63;4.53;;;28.30;73.00;;;;;;5074180;28;20028;-73
2022/07/21 03:24:26;;;;;;;8.20;5.05;;;28.40;72.90;;;;;;5073848;28;20031;-72
2022/07/21 03:26:52;;;;;;;8.57;4.53;;;28.30;72.60;;;;;;5073679;28;20407;-74
2022/07/21 03:29:18;;;;;;;8.77;5.28;;;28.20;72.30;;;;;;5073612;28;20448;-72
2022/07/21 03:31:43;;;;;;;10.38;5.07;;;28.20;72.20;;;;;;5073930;28;20024;-72
2022/07/21 03:34:09;;;;;;;10.60;4.85;;;28.20;72.10;;;;;;5073756;28;20109;-76
2022/07/21 03:36:35;;;;;;;5.97;5.00;;;28.20;71.80;;;;;;5073598;28;20017;-73
2022/07/21 03:39:00;;;;;;;8.35;5.30;;;28.30;71.50;;;;;;5073770;28;20401;-73
2022/07/21 03:41:26;;;;;;;7.90;4.85;;;28.30;71.00;;;;;;5074123;28;20025;-73
2022/07/21 03:43:52;;;;;;;7.20;4.85;;;28.30;70.80;;;;;;5073439;28;20032;-73
2022/07/21 03:46:17;;;;;;;9.40;5.50;;;28.30;70.70;;;;;;5073078;28;20024;-73
2022/07/21 03:48:43;;;;;;;10.73;6.65;;;28.30;70.40;;;;;;5073755;28;20458;-72
2022/07/21 03:51:09;;;;;;;7.78;5.35;;;28.30;70.10;;;;;;5073665;28;20052;-73
2022/07/21 03:53:35;;;;;;;8.85;5.85;;;28.30;70.10;;;;;;5073635;28;20475;-73
2022/07/21 03:56:01;;;;;;;8.25;5.60;;;28.30;70.10;;;;;;5079158;22;20132;-72
2022/07/21 03:58:27;;;;;;;8.85;4.80;;;28.30;69.70;;;;;;5052668;28;20020;-72
2022/07/21 04:00:53;;;;;;;9.98;6.20;;;28.30;69.40;;;;;;5052854;28;20032;-72
2022/07/21 04:03:19;;;;;;;8.98;5.60;;;28.20;69.40;;;;;;5052436;28;20478;-71
2022/07/21 04:05:44;;;;;;;11.75;5.97;;;28.20;69.10;;;;;;5052808;28;20074;-71
2022/07/21 04:08:13;;;;;;;7.50;5.30;;;28.20;68.90;;;;;;5052678;28;20025;-73
2022/07/21 04:10:41;;;;;;;10.02;5.65;;;28.20;68.90;;;;;;5052938;28;20044;-73
2022/07/21 04:13:11;;;;;;;10.00;5.25;;;28.20;68.50;;;;;;5052912;28;20028;-72
2022/07/21 04:15:38;;;;;;;12.68;5.25;;;28.20;68.30;;;;;;5052316;28;20509;-72
2022/07/21 04:18:04;;;;;;;8.25;5.70;;;28.20;68.00;;;;;;5052527;28;20030;-73
2022/07/21 04:20:30;;;;;;;9.18;5.72;;;28.20;67.70;;;;;;5052239;28;20021;-73
2022/07/21 04:22:55;;;;;;;7.93;5.72;;;28.20;67.40;;;;;;5052800;28;20033;-73
2022/07/21 04:25:22;;;;;;;14.57;5.88;;;28.20;66.90;;;;;;5052265;28;20100;-72
2022/07/21 04:27:49;;;;;;;10.02;6.75;;;28.20;66.90;;;;;;5052506;28;20370;-72
2022/07/21 04:30:20;;;;;;;11.27;7.40;;;28.20;66.60;;;;;;5052514;28;20028;-73
2022/07/21 04:32:46;;;;;;;15.68;8.20;;;28.20;66.80;;;;;;5052278;28;20029;-73
2022/07/21 04:35:13;;;;;;;13.05;7.82;;;28.30;66.10;;;;;;5052063;28;20025;-73
2022/07/21 04:37:39;;;;;;;13.35;7.78;;;28.20;65.90;;;;;;5052202;28;20029;-73
2022/07/21 04:40:07;;;;;;;16.15;7.70;;;28.20;65.70;;;;;;5052350;28;20158;-72
2022/07/21 04:42:35;;;;;;;11.45;7.05;;;28.20;65.60;;;;;;5052083;28;20061;-73
2022/07/21 04:45:01;;;;;;;13.00;5.97;;;28.20;65.20;;;;;;5052050;28;20401;-73
2022/07/21 04:47:26;;;;;;;8.30;5.60;;;28.20;64.90;;;;;;5052189;28;20017;-71
2022/07/21 04:49:52;;;;;;;9.60;4.97;;;28.20;64.90;;;;;;5052063;28;20382;-73
2022/07/21 04:52:20;;;;;;;10.13;6.80;;;28.20;64.60;;;;;;5052135;28;20052;-72
2022/07/21 04:54:45;;;;;;;13.23;5.95;;;28.20;64.60;;;;;;5052156;28;20021;-72
2022/07/21 04:57:11;;;;;;;10.10;5.57;;;28.10;64.70;;;;;;5051800;28;20052;-73
2022/07/21 04:59:38;;;;;;;14.77;5.65;;;28.20;64.80;;;;;;5054414;28;20116;-73
2022/07/21 05:02:05;;;;;;;11.05;5.50;;;28.20;64.50;;;;;;5055704;28;20534;-72
2022/07/21 05:04:31;;;;;;;11.90;5.72;;;28.20;64.70;;;;;;5055324;28;20052;-72
2022/07/21 05:06:57;;;;;;;10.32;5.60;;;28.20;65.20;;;;;;5055768;28;20025;-71
2022/07/21 05:09:23;;;;;;;8.90;5.28;;;28.10;65.80;;;;;;5055921;28;20029;-73
2022/07/21 05:11:49;;;;;;;11.30;6.35;;;28.10;66.30;;;;;;5055642;28;20367;-72
2022/07/21 05:14:14;;;;;;;9.98;5.95;;;28.20;66.40;;;;;;5055485;28;20035;-73
2022/07/21 05:16:40;;;;;;;9.18;5.57;;;28.20;66.40;;;;;;5037388;28;20051;-73
2022/07/21 05:19:06;;;;;;;13.30;6.05;;;28.30;66.10;;;;;;5055335;28;20033;-72
2022/07/21 05:21:32;;;;;;;13.50;5.63;;;28.40;65.80;;;;;;5055192;28;20024;-72
2022/07/21 05:23:57;;;;;;;11.32;5.78;;;28.60;65.30;;;;;;5055547;28;20029;-72
2022/07/21 05:26:23;;;;;;;16.48;5.40;;;28.80;64.70;;;;;;5055305;28;20049;-73
2022/07/21 05:28:49;;;;;;;12.27;5.30;;;28.90;63.80;;;;;;5055253;28;20046;-73
2022/07/21 05:31:15;;;;;;;7.95;4.82;;;29.30;63.10;;;;;;5055249;28;20029;-72
2022/07/21 05:33:40;;;;;;;8.55;5.32;;;29.70;62.20;;;;;;5055554;28;20040;-73
2022/07/21 05:36:07;;;;;;;12.48;5.50;;;30.00;61.00;;;;;;5054926;28;20494;-73
2022/07/21 05:38:32;;;;;;;9.57;4.97;;;30.30;60.30;;;;;;5055058;28;20100;-73
2022/07/21 05:41:04;;;;;;;8.82;5.35;;;30.50;59.50;;;;;;5054809;28;20060;-74
2022/07/21 05:43:31;;;;;;;9.52;4.90;;;30.60;58.60;;;;;;5054993;28;20031;-72
2022/07/21 05:45:57;;;;;;;10.98;5.15;;;31.00;58.60;;;;;;5054898;28;20032;-72
2022/07/21 05:48:24;;;;;;;6.97;4.82;;;31.20;57.50;;;;;;5054691;28;20493;-73
2022/07/21 05:50:49;;;;;;;11.10;5.00;;;31.30;57.20;;;;;;5054998;28;20091;-73
2022/07/21 05:53:15;;;;;;;10.68;4.47;;;31.30;57.00;;;;;;5054719;28;20405;-73
2022/07/21 05:55:41;;;;;;;8.25;4.93;;;31.50;56.30;;;;;;5054553;28;20041;-73
2022/07/21 05:58:07;;;;;;;14.55;4.72;;;31.80;56.00;;;;;;5054745;28;20094;-71
2022/07/21 06:00:33;;;;;;;11.18;4.65;;;32.00;55.10;;;;;;5054668;28;20363;-72
2022/07/21 06:02:58;;;;;;;8.75;4.85;;;32.20;54.90;;;;;;5054397;28;20032;-72
2022/07/21 06:05:24;;;;;;;11.15;5.18;;;32.30;54.20;;;;;;5054590;28;20028;-73
2022/07/21 06:07:50;;;;;;;13.20;5.25;;;32.30;53.50;;;;;;5036301;28;20514;-74
2022/07/21 06:10:16;;;;;;;10.20;5.18;;;32.10;54.30;;;;;;5054172;28;20036;-73
2022/07/21 06:12:42;;;;;;;10.82;5.05;;;32.40;53.30;;;;;;5054344;28;20040;-72
2022/07/21 06:15:09;;;;;;;13.00;4.80;;;32.70;52.90;;;;;;5054638;28;20032;-72
2022/07/21 06:17:45;;;;;;;8.40;4.80;;;32.80;51.90;;;;;;5054151;28;20473;-74
2022/07/21 06:20:12;;;;;;;16.65;5.10;;;33.10;51.80;;;;;;5036304;28;20112;-73
2022/07/21 06:22:38;;;;;;;22.45;4.85;;;33.40;51.70;;;;;;5054207;28;20492;-73
2022/07/21 06:25:05;;;;;;;15.85;4.88;;;33.70;51.10;;;;;;5053728;28;20061;-72
2022/07/21 06:27:31;;;;;;;12.77;4.65;;;34.00;50.40;;;;;;5053525;28;20055;-74
2022/07/21 06:29:58;;;;;;;10.63;5.22;;;34.10;50.30;;;;;;5053485;28;20032;-74
2022/07/21 06:32:25;;;;;;;11.73;4.50;;;34.20;50.20;;;;;;5053786;28;20040;-72
2022/07/21 06:34:51;;;;;;;11.77;4.75;;;34.30;50.40;;;;;;5053373;28;20116;-72
2022/07/21 06:37:16;;;;;;;10.63;4.10;;;34.50;49.80;;;;;;5053568;28;20104;-74
2022/07/21 06:39:42;;;;;;;9.63;4.15;;;34.30;50.00;;;;;;5053541;28;20433;-72
2022/07/21 06:42:09;;;;;;;10.05;4.00;;;34.30;50.50;;;;;;5053090;28;20055;-73
2022/07/21 06:44:34;;;;;;;10.48;4.40;;;34.50;50.30;;;;;;5052834;28;20062;-75
2022/07/21 06:47:04;;;;;;;10.15;4.25;;;34.60;49.70;;;;;;5053227;28;20093;-73
2022/07/21 06:49:33;;;;;;;7.93;4.25;;;34.80;49.30;;;;;;5053339;28;20021;-74
2022/07/21 06:51:59;;;;;;;11.27;4.90;;;34.80;49.70;;;;;;5053362;28;20028;-73
2022/07/21 06:54:25;;;;;;;11.52;4.57;;;34.80;50.00;;;;;;5053261;28;20025;-73
2022/07/21 06:56:50;;;;;;;9.88;4.50;;;34.70;50.00;;;;;;5052676;28;20486;-72
2022/07/21 06:59:16;;;;;;;12.05;4.22;;;34.80;50.20;;;;;;5053083;28;20044;-75
2022/07/21 07:01:42;;;;;;;10.60;4.15;;;34.90;50.30;;;;;;5053181;28;20079;-74
2022/07/21 07:04:08;;;;;;;12.57;4.40;;;35.00;50.50;;;;;;5052936;28;20382;-73
2022/07/21 07:06:33;;;;;;;9.75;4.10;;;35.00;50.40;;;;;;5053019;28;20055;-74
2022/07/21 07:08:59;;;;;;;10.38;4.15;;;35.10;50.40;;;;;;5052642;28;20059;-73
2022/07/21 07:11:25;;;;;;;11.80;4.45;;;35.20;50.30;;;;;;5052670;28;20100;-73
2022/07/21 07:13:51;;;;;;;10.23;4.32;;;35.40;51.00;;;;;;5052583;28;20304;-72
2022/07/21 07:16:16;;;;;;;10.77;4.32;;;35.30;50.40;;;;;;5052803;28;20112;-73
2022/07/21 07:18:42;;;;;;;12.70;4.10;;;35.40;50.40;;;;;;5052783;28;20048;-73
2022/07/21 07:21:08;;;;;;;13.05;4.57;;;35.40;50.20;;;;;;5051834;28;20029;-73
2022/07/21 07:23:33;;;;;;;9.40;3.80;;;35.40;50.20;;;;;;5052376;28;20033;-73
2022/07/21 07:25:59;;;;;;;7.90;3.95;;;35.30;50.20;;;;;;5052264;28;20017;-73
2022/07/21 07:28:25;;;;;;;9.98;4.47;;;35.30;50.50;;;;;;5052672;28;20039;-72
2022/07/21 07:30:51;;;;;;;9.57;3.75;;;35.30;50.30;;;;;;5052814;28;20123;-72
2022/07/21 07:33:16;;;;;;;11.68;4.03;;;35.40;50.00;;;;;;5052369;28;20103;-73
2022/07/21 07:35:42;;;;;;;12.35;3.75;;;35.50;50.10;;;;;;5052463;28;20017;-72
2022/07/21 07:38:13;;;;;;;10.77;3.72;;;35.40;49.70;;;;;;5053573;28;20064;-74
2022/07/21 07:40:39;;;;;;;9.75;3.72;;;35.40;50.50;;;;;;5054340;28;20044;-73
2022/07/21 07:43:04;;;;;;;7.63;3.63;;;35.40;49.90;;;;;;5053353;28;20033;-73
2022/07/21 07:45:30;;;;;;;7.93;3.50;;;35.40;49.80;;;;;;5052667;28;20079;-72
2022/07/21 07:47:56;;;;;;;8.45;4.43;;;35.40;49.80;;;;;;5034367;28;20043;-72
2022/07/21 07:50:21;;;;;;;9.65;4.25;;;35.40;49.50;;;;;;5052310;28;20432;-73
2022/07/21 07:52:47;;;;;;;6.82;4.38;;;35.30;49.60;;;;;;5052399;28;20028;-73
2022/07/21 07:55:13;;;;;;;9.50;4.55;;;35.20;49.30;;;;;;5051761;28;20485;-74
2022/07/21 07:57:42;;;;;;;9.70;3.72;;;35.00;49.50;;;;;;5051812;28;20489;-74
2022/07/21 08:00:14;;;;;;;11.90;4.00;;;34.90;49.60;;;;;;5052111;28;20064;-73
2022/07/21 08:02:40;;;;;;;10.55;3.70;;;34.80;49.40;;;;;;5052179;28;20028;-73
2022/07/21 08:05:08;;;;;;;8.23;3.95;;;34.80;49.50;;;;;;5052102;28;20025;-72
2022/07/21 08:07:35;;;;;;;9.80;3.75;;;34.80;49.10;;;;;;5052268;28;20142;-73
2022/07/21 08:10:01;;;;;;;6.32;3.47;;;34.90;49.10;;;;;;5051988;28;20167;-73
2022/07/21 08:12:26;;;;;;;6.70;3.60;;;34.90;48.90;;;;;;5052318;28;20048;-73
2022/07/21 08:14:52;;;;;;;9.05;3.72;;;34.90;48.70;;;;;;5052123;28;20113;-73
2022/07/21 08:17:18;;;;;;;10.23;4.03;;;34.80;48.40;;;;;;5052290;28;20171;-72
2022/07/21 08:19:44;;;;;;;11.52;4.05;;;34.80;48.30;;;;;;5033654;28;20112;-72
2022/07/21 08:22:10;;;;;;;9.35;3.55;;;34.60;48.10;;;;;;5051375;28;20025;-72
2022/07/21 08:24:35;;;;;;;11.02;4.13;;;34.50;48.50;;;;;;5052117;28;20109;-74
2022/07/21 08:27:01;;;;;;;10.70;3.97;;;34.50;48.60;;;;;;5052227;28;20108;-75
2022/07/21 08:29:27;;;;;;;10.88;3.65;;;34.50;48.50;;;;;;5052355;28;20029;-73
2022/07/21 08:31:52;;;;;;;11.55;3.80;;;34.40;49.20;;;;;;5052407;28;20025;-74
2022/07/21 08:34:18;;;;;;;14.20;4.10;;;34.40;47.60;;;;;;5056240;28;20530;-75
2022/07/21 08:36:44;;;;;;;11.43;4.32;;;34.30;47.50;;;;;;5038079;28;20036;-73
2022/07/21 08:39:10;;;;;;;19.13;4.43;;;34.20;47.70;;;;;;5055702;28;20068;-73
2022/07/21 08:41:37;;;;;;;15.00;4.97;;;34.10;48.20;;;;;;5037951;28;20053;-74
2022/07/21 08:44:03;;;;;;;11.60;4.22;;;34.00;48.50;;;;;;5055506;28;20041;-72
2022/07/21 08:46:31;;;;;;;8.02;3.60;;;34.00;48.20;;;;;;5055231;28;20104;-72
2022/07/21 08:48:58;;;;;;;8.63;3.55;;;34.00;46.30;;;;;;5055657;28;20478;-74
2022/07/21 08:51:25;;;;;;;7.32;4.15;;;33.90;46.00;;;;;;5055819;28;20107;-73
2022/07/21 08:53:50;;;;;;;8.15;3.22;;;33.90;45.90;;;;;;5055468;28;20108;-73
2022/07/21 08:56:16;;;;;;;11.20;3.80;;;33.90;45.50;;;;;;5036806;28;20459;-72
2022/07/21 08:58:42;;;;;;;8.32;3.50;;;33.90;45.50;;;;;;5055331;28;20029;-73
2022/07/21 09:01:08;;;;;;;8.07;3.55;;;33.90;45.50;;;;;;5055357;28;20033;-73
2022/07/21 09:03:34;;;;;;;11.02;3.60;;;33.90;45.40;;;;;;5055396;28;20029;-73
2022/07/21 09:06:10;;;;;;;10.15;3.70;;;33.90;44.90;;;;;;5055017;28;20028;-73
2022/07/21 09:08:38;;;;;;;11.48;3.38;;;33.90;45.10;;;;;;5055404;28;20036;-73
2022/07/21 09:11:12;;;;;;;8.32;3.50;;;34.00;44.80;;;;;;5055251;28;20048;-73
2022/07/21 09:13:40;;;;;;;8.13;3.67;;;34.00;44.40;;;;;;5054962;28;20399;-73
2022/07/21 09:16:06;;;;;;;7.05;3.70;;;34.10;44.40;;;;;;5037424;28;20171;-73
2022/07/21 09:18:32;;;;;;;6.53;3.38;;;34.10;44.30;;;;;;5054861;28;20036;-74
2022/07/21 09:21:00;;;;;;;7.75;3.20;;;34.10;43.80;;;;;;5055328;28;20029;-72
2022/07/21 09:23:26;;;;;;;8.30;3.28;;;34.10;42.80;;;;;;5055411;28;20028;-73
2022/07/21 09:25:54;;;;;;;9.30;3.38;;;34.10;41.80;;;;;;5055219;28;20025;-73
2022/07/21 09:28:22;;;;;;;7.97;3.35;;;34.10;41.10;;;;;;5055212;28;20025;-71
2022/07/21 09:30:51;;;;;;;8.98;3.20;;;34.00;40.80;;;;;;5037100;28;20351;-72
2022/07/21 09:33:33;;;;;;;7.70;3.55;;;34.00;41.00;;;;;;5054797;28;20082;-73
2022/07/21 09:36:09;;;;;;;7.90;3.47;;;34.00;41.90;;;;;;5054280;28;20056;-73
2022/07/21 09:38:43;;;;;;;8.18;3.30;;;34.00;40.90;;;;;;5054931;28;20144;-73
2022/07/21 09:41:13;;;;;;;7.63;3.28;;;34.10;41.00;;;;;;5055121;28;20009;-72
2022/07/21 09:43:44;;;;;;;10.35;4.10;;;34.10;40.30;;;;;;5054053;28;20082;-72
2022/07/21 09:46:29;;;;;;;7.50;3.70;;;34.10;39.20;;;;;;5054105;28;20047;-72
2022/07/21 09:48:57;;;;;;;7.10;3.28;;;34.10;40.30;;;;;;5054432;28;20056;-73
2022/07/21 09:51:26;;;;;;;6.97;3.53;;;34.20;39.50;;;;;;5054156;28;20052;-72
2022/07/21 09:54:03;;;;;;;10.27;3.78;;;34.10;39.20;;;;;;5054080;28;20029;-73
2022/07/21 09:56:32;;;;;;;9.70;3.90;;;34.20;39.50;;;;;;5054056;28;20053;-74
2022/07/21 09:58:59;;;;;;;10.50;4.10;;;34.30;39.70;;;;;;5054351;28;20082;-73
2022/07/21 10:01:27;;;;;;;6.15;3.85;;;34.40;39.60;;;;;;5054445;28;20036;-73
2022/07/21 10:03:54;;;;;;;12.75;5.10;;;34.40;39.80;;;;;;5054571;28;20078;-75
2022/07/21 10:06:25;;;;;;;5.80;3.50;;;34.50;39.90;;;;;;5053955;28;20108;-74
2022/07/21 10:08:52;;;;;;;7.25;3.55;;;34.50;41.20;;;;;;5054223;28;20100;-74
2022/07/21 10:11:18;;;;;;;9.48;3.85;;;34.50;40.00;;;;;;5054313;28;20099;-73
2022/07/21 10:13:44;;;;;;;11.68;4.10;;;34.50;40.30;;;;;;5054193;28;20390;-74
2022/07/21 10:16:11;;;;;;;6.50;3.60;;;34.50;39.50;;;;;;5053951;28;20029;-75
2022/07/21 10:18:51;;;;;;;14.65;4.75;;;34.50;39.00;;;;;;5054365;28;20028;-77
2022/07/21 10:21:30;;;;;;;11.20;4.57;;;34.50;38.40;;;;;;5054404;28;20025;-76
2022/07/21 10:23:56;;;;;;;9.45;3.90;;;34.60;37.90;;;;;;5054470;28;20381;-73
2022/07/21 10:26:22;;;;;;;11.35;3.47;;;34.60;38.20;;;;;;5054092;28;20104;-73
2022/07/21 10:28:48;;;;;;;10.48;4.18;;;34.70;37.90;;;;;;5054015;28;20024;-73
2022/07/21 10:31:20;;;;;;;8.10;3.88;;;34.70;37.80;;;;;;5054129;28;20032;-73
2022/07/21 10:33:46;;;;;;;9.43;3.50;;;34.80;37.40;;;;;;5035855;28;20029;-75
2022/07/21 10:36:33;;;;;;;12.15;3.40;;;34.80;37.10;;;;;;5053590;28;20029;-74
2022/07/21 10:39:12;;;;;;;10.45;4.10;;;34.90;36.90;;;;;;5053599;28;20075;-74
2022/07/21 10:41:45;;;;;;;9.88;3.90;;;35.00;36.60;;;;;;5053599;28;20056;-73
2022/07/21 10:44:30;;;;;;;16.00;4.78;;;35.10;36.40;;;;;;5053682;28;20021;-75
2022/07/21 10:47:20;;;;;;;11.15;3.97;;;35.10;36.50;;;;;;5053443;28;20445;-77
2022/07/21 10:49:58;;;;;;;9.13;3.78;;;35.20;36.20;;;;;;5036136;28;20100;-79
2022/07/21 10:52:39;;;;;;;9.23;3.90;;;35.40;35.90;;;;;;5054136;28;20354;-77
2022/07/21 10:55:28;;;;;;;6.85;4.10;;;35.40;35.90;;;;;;5053165;28;20023;-79
2022/07/21 10:58:15;;;;;;;9.68;3.40;;;35.50;35.60;;;;;;5052347;28;20128;-75
2022/07/21 11:00:45;;;;;;;29.92;5.60;;;35.60;36.10;;;;;;5053121;28;20029;-78
2022/07/21 11:03:38;;;;;;;9.60;3.92;;;35.60;36.30;;;;;;5053277;28;20021;-75
2022/07/21 11:06:18;;;;;;;10.43;4.10;;;35.70;35.50;;;;;;5044527;28;20151;-73
2022/07/21 11:09:17;;;;;;;8.05;3.40;;;35.70;35.60;;;;;;5052977;28;20297;-74
2022/07/21 11:12:12;;;;;;;9.30;3.30;;;35.70;37.20;;;;;;5052544;28;20485;-74
2022/07/21 11:14:44;;;;;;;17.25;4.38;;;35.70;38.20;;;;;;5035335;28;20120;-72
2022/07/21 11:17:31;;;;;;;26.60;5.68;;;35.80;38.90;;;;;;5052721;28;20041;-74
2022/07/21 11:19:57;;;;;;;13.90;4.20;;;35.90;39.50;;;;;;5053058;28;20025;-74
2022/07/21 11:22:28;;;;;;;8.95;4.13;;;36.00;39.50;;;;;;5052749;28;20378;-74
2022/07/21 11:25:02;;;;;;;11.07;3.30;;;36.00;40.10;;;;;;5035417;28;20024;-72
2022/07/21 11:27:33;;;;;;;7.43;3.38;;;36.10;40.30;;;;;;5052326;28;20036;-74
2022/07/21 11:30:04;;;;;;;9.30;3.22;;;36.10;40.10;;;;;;5052432;28;20025;-74
2022/07/21 11:32:30;;;;;;;12.07;5.32;;;36.10;40.40;;;;;;5052254;28;20021;-74
2022/07/21 11:35:03;;;;;;;9.55;3.80;;;36.10;40.70;;;;;;5052586;28;20028;-74
2022/07/21 11:37:41;;;;;;;7.35;3.70;;;36.10;41.70;;;;;;5052171;28;20170;-75
2022/07/21 11:40:09;;;;;;;6.78;3.63;;;36.00;41.00;;;;;;5052572;28;20112;-72
2022/07/21 11:42:36;;;;;;;7.03;3.50;;;36.00;41.90;;;;;;5052598;28;20029;-74
2022/07/21 11:45:02;;;;;;;9.23;3.03;;;36.00;41.30;;;;;;5052298;28;20025;-73
2022/07/21 11:47:29;;;;;;;12.52;3.53;;;36.00;41.70;;;;;;5052296;28;20033;-73
2022/07/21 11:49:56;;;;;;;9.13;3.80;;;35.90;42.00;;;;;;5052438;28;20075;-70
2022/07/21 11:52:28;;;;;;;7.68;3.85;;;35.90;41.60;;;;;;5052520;28;20470;-71
2022/07/21 11:54:56;;;;;;;8.93;3.38;;;36.00;41.90;;;;;;5052206;28;20021;-73
2022/07/21 11:57:23;;;;;;;11.60;3.22;;;36.00;42.00;;;;;;5051943;28;20049;-71
2022/07/21 11:59:52;;;;;;;9.32;3.70;;;36.10;41.80;;;;;;5052157;28;20104;-71
2022/07/21 12:02:20;;;;;;;13.68;6.25;;;36.10;42.00;;;;;;5052582;28;20179;-70
2022/07/21 12:04:51;;;;;;;11.10;4.00;;;36.10;42.00;;;;;;5052007;28;20047;-71
2022/07/21 12:07:20;;;;;;;10.52;3.83;;;36.10;42.00;;;;;;5052530;28;20131;-70
2022/07/21 12:09:51;;;;;;;10.93;3.40;;;36.20;42.10;;;;;;5056067;28;20021;-75
2022/07/21 12:12:29;;;;;;;11.60;3.60;;;36.10;42.00;;;;;;5055969;28;20056;-73
2022/07/21 12:14:55;;;;;;;7.50;3.95;;;36.30;42.10;;;;;;5055877;28;20037;-71
2022/07/21 12:17:38;;;;;;;14.82;3.60;;;36.30;41.60;;;;;;5055961;28;20029;-71
2022/07/21 12:20:05;;;;;;;7.45;4.03;;;36.30;41.40;;;;;;5038323;28;20470;-73
2022/07/21 12:22:37;;;;;;;10.35;3.67;;;36.30;41.20;;;;;;5056174;28;20025;-73
2022/07/21 12:25:04;;;;;;;9.52;3.40;;;36.40;41.40;;;;;;5056129;28;20056;-77
2022/07/21 12:27:31;;;;;;;8.52;3.33;;;36.40;41.00;;;;;;5056213;28;20036;-73
2022/07/21 12:29:57;;;;;;;5.68;3.08;;;36.40;40.80;;;;;;5055756;28;20013;-72
2022/07/21 12:32:44;;;;;;;10.60;3.03;;;36.50;40.90;;;;;;5037771;28;20116;-72
2022/07/21 12:35:38;;;;;;;9.30;3.60;;;36.50;41.00;;;;;;5055568;28;20475;-70
2022/07/21 12:38:15;;;;;;;10.45;3.50;;;36.50;41.20;;;;;;5052274;28;20040;-72
2022/07/21 12:40:47;;;;;;;8.13;3.38;;;36.50;41.10;;;;;;5055498;28;20021;-70
2022/07/21 12:43:18;;;;;;;8.32;3.08;;;36.50;41.40;;;;;;5037486;28;20094;-70
2022/07/21 12:45:46;;;;;;;12.57;3.40;;;36.50;41.70;;;;;;5055398;28;20052;-71
2022/07/21 12:48:15;;;;;;;8.65;3.13;;;36.50;40.90;;;;;;5055399;28;20390;-70
2022/07/21 12:50:40;;;;;;;6.88;3.30;;;36.50;40.60;;;;;;5055454;28;20021;-71